Terminal Aerodrome Forecast
Issued by NWS San Angelo, TX

Home | Current Version | Previous Version | Text Only | Print | Product List | Glossary On
Versions: 1 2 3 4 5 6 7 8 9 10 11 12 13 14 15 16 17 18 19
072
FTUS44 KSJT 282320
TAFABI
TAF
KABI 282320Z 2900/2924 14011KT P6SM VCTS SCT070CB
     FM290200 13010KT P6SM SCT040
     FM291300 15010KT P6SM BKN020
     FM291600 16011G18KT P6SM FEW030=

USA.gov is the U.S. government's official web portal to all federal, state and local government web resources and services.